createdAt,value
2017-07-30T00:00:17.497Z,99.90
2017-07-30T00:02:45.035Z,99.90
2017-07-30T00:05:13.323Z,99.90
2017-07-30T00:07:40.852Z,99.90
2017-07-30T00:10:09.127Z,99.90
2017-07-30T00:12:37.414Z,99.90
2017-07-30T00:15:05.676Z,99.90
2017-07-30T00:17:33.236Z,99.90
2017-07-30T00:20:00.803Z,99.90
2017-07-30T00:22:29.060Z,99.90
2017-07-30T00:24:56.661Z,99.90
2017-07-30T00:27:24.204Z,99.90
2017-07-30T00:29:52.479Z,99.90
2017-07-30T00:32:20.726Z,99.90
2017-07-30T00:34:48.207Z,99.90
2017-07-30T00:37:16.496Z,99.90
2017-07-30T00:39:44.762Z,99.90
2017-07-30T00:42:13.037Z,99.90
2017-07-30T00:44:41.288Z,99.90
2017-07-30T00:47:08.790Z,99.90
2017-07-30T00:49:37.052Z,99.90
2017-07-30T00:52:05.331Z,99.90
2017-07-30T00:54:32.894Z,99.90
2017-07-30T00:57:01.163Z,99.90
2017-07-30T00:59:29.426Z,99.90
2017-07-30T01:01:57.000Z,99.90
2017-07-30T01:04:25.283Z,99.90
2017-07-30T01:06:52.830Z,99.90
2017-07-30T01:09:21.091Z,99.90
2017-07-30T01:11:48.567Z,99.90
2017-07-30T01:14:16.823Z,99.90
2017-07-30T01:16:44.310Z,99.90
2017-07-30T01:19:12.578Z,99.90
2017-07-30T01:21:40.849Z,99.90
2017-07-30T01:24:08.414Z,99.90
2017-07-30T01:26:36.695Z,99.90
2017-07-30T01:29:04.973Z,99.90
2017-07-30T01:31:33.240Z,99.90
2017-07-30T01:34:01.513Z,99.90
2017-07-30T01:36:29.792Z,99.90
2017-07-30T01:38:58.074Z,99.90
2017-07-30T01:41:26.324Z,99.90
2017-07-30T01:43:53.801Z,99.90
2017-07-30T01:46:22.058Z,99.90
2017-07-30T01:48:49.629Z,99.90
2017-07-30T01:51:17.206Z,99.90
2017-07-30T01:53:45.446Z,99.90
2017-07-30T01:56:13.062Z,99.90
2017-07-30T01:58:40.596Z,99.90
2017-07-30T02:01:08.878Z,99.90
2017-07-30T02:03:37.155Z,99.90
2017-07-30T02:06:06.250Z,99.90
2017-07-30T02:08:34.522Z,99.90
2017-07-30T02:11:02.798Z,99.90
2017-07-30T02:13:31.082Z,99.90
2017-07-30T02:15:59.339Z,99.90
2017-07-30T02:18:26.918Z,99.90
2017-07-30T02:20:55.190Z,99.90
2017-07-30T02:23:23.457Z,99.90
2017-07-30T02:25:50.914Z,99.90
2017-07-30T02:28:19.188Z,99.90
2017-07-30T02:30:46.760Z,99.90
2017-07-30T02:33:15.026Z,99.90
2017-07-30T02:35:42.500Z,99.90
2017-07-30T02:38:10.060Z,99.90
2017-07-30T02:40:38.346Z,99.90
2017-07-30T02:43:05.885Z,99.90
2017-07-30T02:45:34.161Z,99.90
2017-07-30T02:48:02.408Z,99.90
2017-07-30T02:50:29.896Z,99.90
2017-07-30T02:52:58.169Z,99.90
2017-07-30T02:55:27.373Z,99.90
2017-07-30T02:57:54.840Z,99.90
2017-07-30T03:00:22.391Z,99.90
2017-07-30T03:02:50.665Z,99.90
2017-07-30T03:05:19.020Z,99.90
2017-07-30T03:07:46.514Z,99.90
2017-07-30T03:10:14.751Z,99.90
2017-07-30T03:12:42.243Z,99.90
2017-07-30T03:15:09.789Z,99.90
2017-07-30T03:17:38.061Z,99.90
2017-07-30T03:20:06.346Z,99.90
2017-07-30T03:22:34.578Z,99.90
2017-07-30T03:25:02.065Z,99.90
2017-07-30T03:27:29.534Z,99.90
2017-07-30T03:29:57.806Z,99.90
2017-07-30T03:32:26.079Z,99.90
2017-07-30T03:34:53.576Z,99.90
2017-07-30T03:37:21.107Z,99.90
2017-07-30T03:39:49.346Z,99.90
2017-07-30T03:42:16.854Z,99.90
2017-07-30T03:44:44.354Z,99.90
2017-07-30T03:47:11.960Z,99.90
2017-07-30T03:49:40.222Z,99.90
2017-07-30T03:52:07.784Z,99.90
2017-07-30T03:54:35.358Z,99.90
2017-07-30T03:57:03.616Z,99.90
2017-07-30T03:59:31.103Z,99.90
2017-07-30T04:01:58.654Z,99.90
2017-07-30T04:04:26.913Z,99.90
2017-07-30T04:06:54.399Z,99.90
2017-07-30T04:09:21.943Z,99.90
2017-07-30T04:11:50.207Z,99.90
2017-07-30T04:14:17.686Z,99.90
2017-07-30T04:16:46.061Z,99.90
2017-07-30T04:19:14.296Z,99.90
2017-07-30T04:21:41.769Z,99.90
2017-07-30T04:24:09.240Z,99.90
2017-07-30T04:26:36.799Z,99.90
2017-07-30T04:29:05.060Z,99.90
2017-07-30T04:31:32.636Z,99.90
2017-07-30T04:34:00.886Z,99.90
2017-07-30T04:36:28.378Z,99.90
2017-07-30T04:38:56.649Z,99.90
2017-07-30T04:41:24.895Z,99.90
2017-07-30T04:43:52.381Z,99.90
2017-07-30T04:46:20.656Z,99.90
2017-07-30T04:48:48.934Z,99.90
2017-07-30T04:51:17.213Z,99.90
2017-07-30T04:53:45.495Z,99.90
2017-07-30T04:56:13.758Z,99.90
2017-07-30T04:58:42.033Z,99.90
2017-07-30T05:01:10.322Z,99.90
2017-07-30T05:03:38.606Z,99.90
2017-07-30T05:06:06.865Z,99.90
2017-07-30T05:08:35.142Z,99.90
2017-07-30T05:11:03.426Z,99.90
2017-07-30T05:13:31.679Z,99.90
2017-07-30T05:15:59.259Z,99.90
2017-07-30T05:18:27.546Z,99.90
2017-07-30T05:20:55.787Z,99.90
2017-07-30T05:23:23.275Z,99.90
2017-07-30T05:25:51.648Z,99.90
2017-07-30T05:28:19.927Z,99.90
2017-07-30T05:30:48.194Z,99.90
2017-07-30T05:33:16.441Z,99.90
2017-07-30T05:35:43.926Z,99.90
2017-07-30T05:38:11.403Z,99.90
2017-07-30T05:40:39.670Z,99.90
2017-07-30T05:43:07.943Z,99.90
2017-07-30T05:45:36.186Z,99.90
2017-07-30T05:48:03.682Z,99.90
2017-07-30T05:50:31.940Z,99.50
2017-07-30T05:52:59.540Z,99.60
2017-07-30T05:55:27.067Z,99.50
2017-07-30T05:57:54.667Z,99.30
2017-07-30T06:00:22.195Z,99.00
2017-07-30T06:02:50.474Z,98.60
2017-07-30T06:05:18.975Z,98.20
2017-07-30T06:07:46.463Z,98.20
2017-07-30T06:10:13.963Z,98.00
2017-07-30T06:12:43.050Z,98.00
2017-07-30T06:15:10.631Z,98.00
2017-07-30T06:17:38.902Z,97.90
2017-07-30T06:20:07.128Z,97.80
2017-07-30T06:22:34.647Z,97.80
2017-07-30T06:25:02.227Z,97.50
2017-07-30T06:27:29.716Z,97.40
2017-07-30T06:29:57.179Z,96.90
2017-07-30T06:32:24.671Z,96.80
2017-07-30T06:34:52.904Z,96.70
2017-07-30T06:37:20.394Z,96.70
2017-07-30T06:39:48.636Z,96.20
2017-07-30T06:42:16.231Z,96.00
2017-07-30T06:44:44.519Z,95.40
2017-07-30T06:47:12.786Z,95.40
2017-07-30T06:49:41.064Z,95.80
2017-07-30T06:52:09.338Z,95.10
2017-07-30T06:54:37.655Z,95.30
2017-07-30T06:57:05.169Z,95.30
2017-07-30T06:59:32.750Z,95.30
2017-07-30T07:02:00.300Z,94.30
2017-07-30T07:04:28.576Z,94.20
2017-07-30T07:06:56.833Z,94.00
2017-07-30T07:09:25.138Z,93.90
2017-07-30T07:11:52.684Z,93.90
2017-07-30T07:14:21.084Z,93.80
2017-07-30T07:16:48.632Z,93.80
2017-07-30T07:19:16.185Z,93.10
2017-07-30T07:21:44.419Z,92.60
2017-07-30T07:24:11.927Z,92.50
2017-07-30T07:26:39.410Z,91.90
2017-07-30T07:29:06.895Z,92.20
2017-07-30T07:31:34.406Z,91.60
2017-07-30T07:34:01.890Z,92.10
2017-07-30T07:36:29.399Z,91.50
2017-07-30T07:38:57.654Z,92.10
2017-07-30T07:41:25.159Z,91.70
2017-07-30T07:43:52.692Z,91.50
2017-07-30T07:46:20.968Z,90.80
2017-07-30T07:48:49.217Z,91.00
2017-07-30T07:51:16.815Z,91.00
2017-07-30T07:53:45.102Z,90.60
2017-07-30T07:56:13.384Z,90.20
2017-07-30T07:58:40.910Z,90.20
2017-07-30T08:01:08.394Z,90.10
2017-07-30T08:03:35.945Z,90.10
2017-07-30T08:06:04.563Z,89.90
2017-07-30T08:08:32.068Z,89.90
2017-07-30T08:10:59.657Z,90.10
2017-07-30T08:13:27.205Z,90.50
2017-07-30T08:15:55.480Z,89.40
2017-07-30T08:18:23.759Z,90.10
2017-07-30T08:20:52.023Z,88.20
2017-07-30T08:23:20.326Z,87.70
2017-07-30T08:25:47.820Z,87.10
2017-07-30T08:28:15.310Z,87.00
2017-07-30T08:30:42.896Z,88.40
2017-07-30T08:33:11.158Z,87.80
2017-07-30T08:35:39.417Z,88.10
2017-07-30T08:38:06.988Z,87.50
2017-07-30T08:40:34.561Z,88.20
2017-07-30T08:43:02.824Z,88.00
2017-07-30T08:45:31.111Z,86.20
2017-07-30T08:47:59.383Z,86.30
2017-07-30T08:50:27.651Z,86.10
2017-07-30T08:52:55.145Z,86.00
2017-07-30T08:55:22.694Z,88.10
2017-07-30T08:57:50.244Z,85.70
2017-07-30T09:00:18.504Z,84.60
2017-07-30T09:02:59.486Z,84.60
2017-07-30T09:05:27.966Z,84.20
2017-07-30T09:07:56.226Z,84.00
2017-07-30T09:10:23.712Z,83.50
2017-07-30T09:12:51.976Z,82.80
2017-07-30T09:15:20.257Z,83.60
2017-07-30T09:17:48.527Z,83.70
2017-07-30T09:20:16.809Z,84.90
2017-07-30T09:22:45.082Z,84.30
2017-07-30T09:25:13.352Z,84.60
2017-07-30T09:27:41.742Z,84.50
2017-07-30T09:30:09.999Z,83.20
2017-07-30T09:32:37.474Z,83.20
2017-07-30T09:35:05.781Z,83.30
2017-07-30T09:37:33.254Z,83.10
2017-07-30T09:40:00.738Z,80.00
2017-07-30T09:42:28.327Z,80.50
2017-07-30T09:44:56.584Z,80.20
2017-07-30T09:47:27.291Z,80.00
2017-07-30T09:49:54.791Z,79.40
2017-07-30T09:52:22.359Z,78.30
2017-07-30T09:54:50.633Z,79.30
2017-07-30T09:57:18.909Z,79.30
2017-07-30T09:59:47.176Z,79.60
2017-07-30T10:02:14.669Z,79.50
2017-07-30T10:04:42.204Z,80.00
2017-07-30T10:07:10.617Z,78.80
2017-07-30T10:09:38.131Z,78.80
2017-07-30T10:12:06.421Z,78.00
2017-07-30T10:14:34.664Z,78.20
2017-07-30T10:17:02.247Z,78.20
2017-07-30T10:19:30.537Z,77.80
2017-07-30T10:21:59.425Z,79.30
2017-07-30T10:24:27.672Z,79.90
2017-07-30T10:26:55.255Z,79.90
2017-07-30T10:29:23.533Z,78.60
2017-07-30T10:31:51.810Z,78.90
2017-07-30T10:34:20.086Z,79.50
2017-07-30T10:36:48.364Z,78.80
2017-07-30T10:39:15.911Z,78.70
2017-07-30T10:41:43.399Z,77.50
2017-07-30T10:44:10.877Z,75.90
2017-07-30T10:46:38.400Z,76.10
2017-07-30T10:49:06.684Z,75.70
2017-07-30T10:51:34.226Z,75.70
2017-07-30T10:54:01.802Z,75.70
2017-07-30T10:56:29.345Z,76.00
2017-07-30T10:58:57.628Z,74.90
2017-07-30T11:01:25.890Z,77.00
2017-07-30T11:03:53.459Z,76.90
2017-07-30T11:06:21.738Z,78.80
2017-07-30T11:08:50.013Z,78.40
2017-07-30T11:11:18.286Z,76.30
2017-07-30T11:13:46.565Z,76.80
2017-07-30T11:16:14.849Z,78.10
2017-07-30T11:18:43.120Z,78.10
2017-07-30T11:21:11.366Z,76.10
2017-07-30T11:23:38.862Z,76.10
2017-07-30T11:26:07.136Z,76.30
2017-07-30T11:28:35.493Z,74.40
2017-07-30T11:31:02.979Z,74.30
2017-07-30T11:33:31.362Z,74.30
2017-07-30T11:35:58.857Z,74.30
2017-07-30T11:38:26.354Z,75.80
2017-07-30T11:40:53.919Z,75.50
2017-07-30T11:43:22.210Z,75.50
2017-07-30T11:45:49.717Z,74.70
2017-07-30T11:48:17.206Z,76.40
2017-07-30T11:50:44.693Z,76.70
2017-07-30T11:53:12.223Z,78.10
2017-07-30T11:55:40.511Z,77.70
2017-07-30T11:58:08.772Z,78.60
2017-07-30T12:00:36.330Z,78.60
2017-07-30T12:03:03.894Z,79.60
2017-07-30T12:05:31.465Z,80.10
2017-07-30T12:07:59.759Z,80.10
2017-07-30T12:10:27.285Z,80.10
2017-07-30T12:12:54.852Z,79.90
2017-07-30T12:15:23.137Z,79.80
2017-07-30T12:17:51.419Z,80.70
2017-07-30T12:20:19.691Z,79.60
2017-07-30T12:22:47.191Z,79.50
2017-07-30T12:25:14.702Z,81.00
2017-07-30T12:27:42.952Z,80.30
2017-07-30T12:30:10.431Z,80.30
2017-07-30T12:32:37.915Z,79.90
2017-07-30T12:35:05.462Z,79.30
2017-07-30T12:37:33.007Z,78.70
2017-07-30T12:40:01.293Z,78.90
2017-07-30T12:42:29.574Z,78.00
2017-07-30T12:44:57.848Z,78.90
2017-07-30T12:47:26.115Z,80.00
2017-07-30T12:49:54.362Z,79.40
2017-07-30T12:52:21.946Z,79.40
2017-07-30T12:54:50.242Z,79.60
2017-07-30T12:57:18.509Z,79.40
2017-07-30T12:59:46.791Z,78.90
2017-07-30T13:02:14.308Z,78.90
2017-07-30T13:04:41.785Z,77.50
2017-07-30T13:07:09.266Z,76.90
2017-07-30T13:09:37.526Z,74.80
2017-07-30T13:12:05.007Z,74.80
2017-07-30T13:14:32.549Z,75.70
2017-07-30T13:17:00.828Z,75.50
2017-07-30T13:19:29.101Z,74.40
2017-07-30T13:21:57.391Z,75.20
2017-07-30T13:24:25.634Z,75.00
2017-07-30T13:26:53.216Z,75.00
2017-07-30T13:29:21.479Z,75.80
2017-07-30T13:31:48.965Z,75.80
2017-07-30T13:34:17.229Z,76.50
2017-07-30T13:36:44.794Z,76.40
2017-07-30T13:39:13.082Z,77.00
2017-07-30T13:41:40.633Z,77.00
2017-07-30T13:44:08.897Z,78.10
2017-07-30T13:46:37.181Z,77.20
2017-07-30T13:49:05.448Z,77.20
2017-07-30T13:51:33.730Z,77.30
2017-07-30T13:54:02.002Z,78.40
2017-07-30T13:56:30.289Z,77.70
2017-07-30T13:58:58.550Z,78.50
2017-07-30T14:01:26.118Z,78.40
2017-07-30T14:03:54.393Z,76.20
2017-07-30T14:06:21.949Z,76.20
2017-07-30T14:08:50.230Z,77.80
2017-07-30T14:11:18.504Z,78.60
2017-07-30T14:13:46.777Z,79.60
2017-07-30T14:16:15.055Z,81.30
2017-07-30T14:18:43.331Z,83.00
2017-07-30T14:21:11.602Z,84.90
2017-07-30T14:23:39.078Z,84.80
2017-07-30T14:26:07.335Z,84.40
2017-07-30T14:28:34.890Z,84.40
2017-07-30T14:31:02.479Z,83.20
2017-07-30T14:33:30.019Z,82.50
2017-07-30T14:35:58.306Z,84.10
2017-07-30T14:38:25.846Z,84.00
2017-07-30T14:40:53.349Z,85.50
2017-07-30T14:43:20.824Z,85.30
2017-07-30T14:45:48.329Z,85.30
2017-07-30T14:48:16.607Z,84.40
2017-07-30T14:50:44.862Z,85.10
2017-07-30T14:53:12.461Z,85.10
2017-07-30T14:55:39.937Z,86.30
2017-07-30T14:58:15.453Z,85.00
2017-07-30T15:00:43.730Z,86.60
2017-07-30T15:03:11.998Z,86.30
2017-07-30T15:05:40.243Z,87.10
2017-07-30T15:08:07.834Z,87.10
2017-07-30T15:10:36.115Z,87.50
2017-07-30T15:13:04.383Z,86.50
2017-07-30T15:15:32.663Z,85.50
2017-07-30T15:18:00.939Z,85.10
2017-07-30T15:20:29.202Z,84.20
2017-07-30T15:22:56.742Z,84.60
2017-07-30T15:25:24.235Z,85.10
2017-07-30T15:27:52.473Z,84.70
2017-07-30T15:30:19.961Z,84.70
2017-07-30T15:32:48.203Z,85.30
2017-07-30T15:35:16.005Z,84.90
2017-07-30T15:37:44.245Z,83.50
2017-07-30T15:40:11.751Z,83.50
2017-07-30T15:42:40.016Z,83.20
2017-07-30T15:45:08.287Z,83.30
2017-07-30T15:47:35.850Z,83.20
2017-07-30T15:50:04.124Z,81.60
2017-07-30T15:52:31.685Z,81.60
2017-07-30T15:54:59.963Z,81.50
2017-07-30T15:57:27.529Z,80.80
2017-07-30T15:59:55.799Z,79.90
2017-07-30T16:02:23.351Z,79.90
2017-07-30T16:04:50.917Z,79.90
2017-07-30T16:07:19.202Z,79.50
2017-07-30T16:09:47.484Z,79.20
2017-07-30T16:12:15.767Z,79.30
2017-07-30T16:14:43.317Z,79.20
2017-07-30T16:17:11.580Z,78.70
2017-07-30T16:19:39.060Z,78.60
2017-07-30T16:22:06.602Z,77.80
2017-07-30T16:24:34.882Z,75.30
2017-07-30T16:27:03.158Z,74.80
2017-07-30T16:29:31.394Z,73.60
2017-07-30T16:31:58.991Z,73.60
2017-07-30T16:34:27.270Z,72.70
2017-07-30T16:36:55.558Z,72.10
2017-07-30T16:39:23.836Z,70.40
2017-07-30T16:41:51.332Z,70.30
2017-07-30T16:44:18.841Z,69.80
2017-07-30T16:46:47.114Z,68.10
2017-07-30T16:49:15.392Z,66.60
2017-07-30T16:51:43.661Z,65.90
2017-07-30T16:54:11.936Z,65.10
2017-07-30T16:56:39.515Z,65.10
2017-07-30T16:59:07.787Z,63.00
2017-07-30T17:01:36.087Z,61.80
2017-07-30T17:04:03.751Z,61.80
2017-07-30T17:06:31.281Z,61.00
2017-07-30T17:08:59.545Z,60.40
2017-07-30T17:11:27.830Z,60.10
2017-07-30T17:13:56.114Z,60.50
2017-07-30T17:16:24.405Z,60.20
2017-07-30T17:18:51.919Z,60.20
2017-07-30T17:21:19.390Z,59.80
2017-07-30T17:23:46.981Z,59.70
2017-07-30T17:26:14.465Z,60.10
2017-07-30T17:28:41.974Z,61.30
2017-07-30T17:31:10.248Z,65.70
2017-07-30T17:33:38.530Z,67.70
2017-07-30T17:36:06.798Z,69.60
2017-07-30T17:38:35.082Z,71.30
2017-07-30T17:41:03.352Z,73.90
2017-07-30T17:43:31.643Z,74.90
2017-07-30T17:45:59.907Z,75.30
2017-07-30T17:48:28.159Z,76.70
2017-07-30T17:50:55.746Z,76.70
2017-07-30T17:53:24.027Z,78.70
2017-07-30T17:55:52.286Z,80.30
2017-07-30T17:58:19.845Z,80.20
2017-07-30T18:00:47.416Z,80.70
2017-07-30T18:03:15.701Z,81.50
2017-07-30T18:05:43.970Z,82.90
2017-07-30T18:08:12.213Z,84.40
2017-07-30T18:10:39.812Z,83.80
2017-07-30T18:13:08.073Z,85.80
2017-07-30T18:15:35.642Z,85.70
2017-07-30T18:18:03.925Z,86.50
2017-07-30T18:20:32.184Z,86.90
2017-07-30T18:23:00.221Z,86.80
2017-07-30T18:25:27.714Z,85.60
2017-07-30T18:27:55.283Z,86.30
2017-07-30T18:30:22.833Z,88.00
2017-07-30T18:32:50.311Z,87.90
2017-07-30T18:35:18.958Z,91.50
2017-07-30T18:37:46.575Z,91.50
2017-07-30T18:40:14.102Z,92.40
2017-07-30T18:42:42.380Z,94.60
2017-07-30T18:45:10.634Z,94.20
2017-07-30T18:47:38.134Z,94.20
2017-07-30T18:50:05.679Z,92.30
2017-07-30T18:52:34.869Z,94.40
2017-07-30T18:55:03.157Z,93.60
2017-07-30T18:57:31.526Z,93.30
2017-07-30T18:59:59.010Z,93.30
2017-07-30T19:02:26.533Z,93.20
2017-07-30T19:04:54.027Z,93.70
2017-07-30T19:07:21.527Z,94.90
2017-07-30T19:09:49.002Z,95.20
2017-07-30T19:12:16.497Z,97.10
2017-07-30T19:14:44.025Z,98.40
2017-07-30T19:17:11.496Z,97.50
2017-07-30T19:19:39.767Z,97.20
2017-07-30T19:22:08.050Z,97.30
2017-07-30T19:24:36.314Z,96.80
2017-07-30T19:27:04.571Z,96.50
2017-07-30T19:29:32.076Z,96.40
2017-07-30T19:31:59.627Z,96.90
2017-07-30T19:34:27.112Z,96.40
2017-07-30T19:36:54.665Z,97.10
2017-07-30T19:39:22.201Z,96.70
2017-07-30T19:41:50.465Z,96.40
2017-07-30T19:44:18.736Z,96.40
2017-07-30T19:46:46.304Z,96.30
2017-07-30T19:49:14.581Z,97.00
2017-07-30T19:51:42.860Z,98.10
2017-07-30T19:54:11.231Z,97.50
2017-07-30T19:56:39.484Z,97.40
2017-07-30T19:59:07.065Z,97.40
2017-07-30T20:01:35.345Z,98.30
2017-07-30T20:04:03.632Z,98.20
2017-07-30T20:06:32.078Z,98.20
2017-07-30T20:08:59.666Z,98.30
2017-07-30T20:11:27.939Z,98.60
2017-07-30T20:13:56.197Z,99.10
2017-07-30T20:16:23.781Z,98.70
2017-07-30T20:18:52.053Z,99.00
2017-07-30T20:21:20.345Z,99.20
2017-07-30T20:23:47.837Z,99.10
2017-07-30T20:26:15.359Z,99.00
2017-07-30T20:28:43.612Z,99.20
2017-07-30T20:31:11.185Z,99.20
2017-07-30T20:33:39.453Z,99.70
2017-07-30T20:36:07.713Z,99.60
2017-07-30T20:38:35.306Z,99.60
2017-07-30T20:41:03.583Z,99.90
2017-07-30T20:43:31.072Z,99.90
2017-07-30T20:45:58.580Z,99.90
2017-07-30T20:48:26.831Z,99.90
2017-07-30T20:50:54.431Z,99.90
2017-07-30T20:53:22.802Z,99.90
2017-07-30T20:55:51.078Z,99.90
2017-07-30T20:58:19.365Z,99.90
2017-07-30T21:00:47.626Z,99.90
2017-07-30T21:03:15.902Z,99.90
2017-07-30T21:05:43.471Z,99.90
2017-07-30T21:08:11.751Z,99.90
2017-07-30T21:10:39.988Z,99.90
2017-07-30T21:13:07.589Z,99.90
2017-07-30T21:15:35.857Z,99.90
2017-07-30T21:18:04.153Z,99.90
2017-07-30T21:20:31.695Z,99.90
2017-07-30T21:22:59.967Z,99.90
2017-07-30T21:25:28.240Z,99.90
2017-07-30T21:27:56.631Z,99.90
2017-07-30T21:30:24.912Z,99.90
2017-07-30T21:32:52.421Z,99.90
2017-07-30T21:35:20.004Z,99.90
2017-07-30T21:37:47.481Z,99.90
2017-07-30T21:40:15.733Z,99.90
2017-07-30T21:42:43.313Z,99.90
2017-07-30T21:45:11.680Z,99.90
2017-07-30T21:47:39.171Z,99.90
2017-07-30T21:50:06.711Z,99.90
2017-07-30T21:52:34.988Z,99.90
2017-07-30T21:55:03.255Z,99.90
2017-07-30T21:57:31.570Z,99.90
2017-07-30T22:00:05.346Z,99.90
2017-07-30T22:02:32.833Z,99.90
2017-07-30T22:05:00.462Z,99.90
2017-07-30T22:07:27.944Z,99.90
2017-07-30T22:09:55.459Z,99.90
2017-07-30T22:12:23.047Z,99.90
2017-07-30T22:14:51.322Z,99.90
2017-07-30T22:17:18.883Z,99.90
2017-07-30T22:19:46.423Z,99.90
2017-07-30T22:22:14.707Z,99.90
2017-07-30T22:24:42.966Z,99.90
2017-07-30T22:27:10.474Z,99.90
2017-07-30T22:29:38.001Z,99.90
2017-07-30T22:32:06.271Z,99.90
2017-07-30T22:34:34.522Z,99.90
2017-07-30T22:37:02.118Z,99.90
2017-07-30T22:39:30.360Z,99.90
2017-07-30T22:41:57.952Z,99.90
2017-07-30T22:44:26.225Z,99.90
2017-07-30T22:46:54.487Z,99.90
2017-07-30T22:49:22.052Z,99.90
2017-07-30T22:51:49.546Z,99.90
2017-07-30T22:54:17.019Z,99.90
2017-07-30T22:56:44.536Z,99.90
2017-07-30T22:59:12.794Z,99.90
2017-07-30T23:01:40.375Z,99.90
2017-07-30T23:04:08.649Z,99.90
2017-07-30T23:06:36.932Z,99.90
2017-07-30T23:09:05.197Z,99.90
2017-07-30T23:11:33.479Z,99.90
2017-07-30T23:14:01.734Z,99.90
2017-07-30T23:16:29.305Z,99.90
2017-07-30T23:18:56.882Z,99.90
2017-07-30T23:21:25.150Z,99.90
2017-07-30T23:23:53.401Z,99.90
2017-07-30T23:26:20.976Z,99.90
2017-07-30T23:28:48.462Z,99.90
2017-07-30T23:31:16.002Z,99.90
2017-07-30T23:33:44.281Z,99.90
2017-07-30T23:36:12.527Z,99.90
2017-07-30T23:38:40.111Z,99.90
2017-07-30T23:41:08.357Z,99.90
2017-07-30T23:43:35.839Z,99.90
2017-07-30T23:46:03.410Z,99.90
2017-07-30T23:48:31.704Z,99.90
2017-07-30T23:50:59.267Z,99.90
2017-07-30T23:53:26.751Z,99.90
2017-07-30T23:55:54.257Z,99.90
2017-07-30T23:58:22.638Z,99.90
